ニューヨーク/JFK の空港の天気 - METARとTAF

ジョン・F・ケネディ国際空港 ( KJFK / JFK ) - アメリカ ニューヨーク州ニューヨーク
飛行場実況気象(Metar)
観測時間02/17 09:51 EST (02/17 14:51 UTC)
風向・風速北東 5m/s
視程10km以上
天気現象
少しの雲 雲底高度 1070m
少しの雲 雲底高度 7320m
全天の4割程度の雲 雲底高度 8230m
気温0℃
湿度47%
気圧1021hPa
METARKJFK 171451Z 04010KT 10SM FEW035 FEW240 SCT270 00/M10 A3015 RMK AO2 SLP210 T00001100 50013 $
過去の天気等 Google飛行場航空写真 Wunderground天気予報

過去48時間のMETAR

飛行場予報(TAF)
発表時間: 2/17 09:52 EST (2/17 14:52 UTC)
予報対象時間: 17日10時 EST ~ 18日13時 EST
風向・風速北 5m/s
視程10km以上
少しの雲 雲底高度 7620m
17日13時 EST から
風向・風速南東 3m/s
視程10km以上
全天の4割程度の雲 雲底高度 7620m
17日15時 EST から
風向・風速南 4m/s
視程10km以上
全天の4割程度の雲 雲底高度 3050m
全天の8割程度の雲 雲底高度 6100m
17日22時 EST から
風向・風速東南東 4m/s
視程4830m
天気現象弱い雪凍雨 もや
全天の8割程度の雲 雲底高度 460m
全天を覆う雲 雲底高度 760m
18日2時 EST から
風向・風速東北東 5m/s
視程3220m
天気現象弱い凍雨雨 もや
全天の8割程度の雲 雲底高度 240m
18日4時 EST から
風向・風速東北東 6m/s
視程3220m
天気現象弱い雨 もや
全天の8割程度の雲 雲底高度 180m
18日8時 EST から
風向・風速北東 3m/s
視程4830m
天気現象弱い霧雨 もや
全天を覆う雲 雲底高度 270m
18日10時 EST から
風向・風速北 3m/s
視程8050m
天気現象弱い霧雨 もや
全天の8割程度の雲 雲底高度 270m
全天を覆う雲 雲底高度 460m
18日12時 EST から
風向・風速北北西 4m/s
視程10km以上
全天の8割程度の雲 雲底高度 460m
全天を覆う雲 雲底高度 760m
KJFK 171452Z 1715/1818 01009KT P6SM FEW250
FM171800 14005KT P6SM SCT250
FM172000 17007KT P6SM SCT100 BKN200
FM180300 12008KT 3SM -SNPL BR BKN015 OVC025
FM180700 07010KT 2SM -PLRA BR BKN008
FM180900 06012KT 2SM -RA BR BKN006
FM181300 05006KT 3SM -DZ BR OVC009
FM181500 01006KT 5SM -DZ BR BKN009 OVC015
FM181700 33007KT P6SM BKN015 OVC025